createdAt,value
2015-12-14T00:00:00.648Z,-1.58
2015-12-14T00:00:13.026Z,-1.48
2015-12-14T00:00:25.418Z,-1.52
2015-12-14T00:00:37.702Z,-1.52
2015-12-14T00:00:49.931Z,-1.46
2015-12-14T00:01:02.166Z,-1.53
2015-12-14T00:01:14.572Z,-1.52
2015-12-14T00:01:26.806Z,-1.58
2015-12-14T00:01:39.230Z,-1.49
2015-12-14T00:01:51.574Z,-1.5
2015-12-14T00:02:03.933Z,-1.48
2015-12-14T00:02:16.293Z,-1.53
2015-12-14T00:02:28.652Z,-1.52
2015-12-14T00:02:41.016Z,-1.53
2015-12-14T00:02:53.375Z,-1.43
2015-12-14T00:03:05.734Z,-1.5
2015-12-14T00:03:18.109Z,-1.49
2015-12-14T00:03:30.484Z,-1.48
2015-12-14T00:03:42.847Z,-1.42
2015-12-14T00:03:55.190Z,-1.43
2015-12-14T00:04:07.565Z,-1.46
2015-12-14T00:04:19.925Z,-1.37
2015-12-14T00:04:32.300Z,-1.42
2015-12-14T00:04:44.677Z,-1.4
2015-12-14T00:04:57.052Z,-1.4
2015-12-14T00:05:09.442Z,-1.42
2015-12-14T00:05:21.817Z,-1.32
2015-12-14T00:05:34.224Z,-1.43
2015-12-14T00:05:46.617Z,-1.46
2015-12-14T00:05:59.024Z,-1.4
2015-12-14T00:06:11.430Z,-1.4
2015-12-14T00:06:23.820Z,-1.43
2015-12-14T00:06:36.227Z,-1.42
2015-12-14T00:06:48.573Z,-1.5
2015-12-14T00:07:00.933Z,-1.45
2015-12-14T00:07:13.308Z,-1.43
2015-12-14T00:07:25.667Z,-1.4
2015-12-14T00:07:37.870Z,-1.43
2015-12-14T00:07:50.233Z,-1.4
2015-12-14T00:08:02.592Z,-1.37
2015-12-14T00:08:14.951Z,-1.37
2015-12-14T00:08:27.311Z,-1.43
2015-12-14T00:08:39.686Z,-1.45
2015-12-14T00:08:52.047Z,-1.37
2015-12-14T00:09:04.407Z,-1.34
2015-12-14T00:09:16.766Z,-1.38
2015-12-14T00:09:29.125Z,-1.46
2015-12-14T00:09:41.500Z,-1.35
2015-12-14T00:09:53.269Z,-1.43
2015-12-14T00:10:05.644Z,-1.42
2015-12-14T00:10:18.019Z,-1.42
2015-12-14T00:10:29.706Z,-1.42
2015-12-14T00:10:41.941Z,-1.42
2015-12-14T00:10:54.334Z,-1.43
2015-12-14T00:11:06.725Z,-1.4
2015-12-14T00:11:19.116Z,-1.48
2015-12-14T00:11:31.506Z,-1.48
2015-12-14T00:11:43.866Z,-1.43
2015-12-14T00:11:56.211Z,-1.45
2015-12-14T00:12:08.555Z,-1.45
2015-12-14T00:12:20.915Z,-1.48
2015-12-14T00:12:33.290Z,-1.38
2015-12-14T00:12:45.649Z,-1.48
2015-12-14T00:12:58.011Z,-1.46
2015-12-14T00:13:10.371Z,-1.48
2015-12-14T00:13:22.730Z,-1.5
2015-12-14T00:13:35.105Z,-1.5
2015-12-14T00:13:47.464Z,-1.5
2015-12-14T00:13:59.827Z,-1.52
2015-12-14T00:14:12.186Z,-1.52
2015-12-14T00:14:24.546Z,-1.45
2015-12-14T00:14:36.921Z,-1.49
2015-12-14T00:14:49.298Z,-1.56
2015-12-14T00:15:01.673Z,-1.55
2015-12-14T00:15:14.032Z,-1.5
2015-12-14T00:15:26.423Z,-1.52
2015-12-14T00:15:38.813Z,-1.52
2015-12-14T00:15:51.207Z,-1.63
2015-12-14T00:16:03.597Z,-1.63
2015-12-14T00:16:16.004Z,-1.64
2015-12-14T00:16:28.410Z,-1.67
2015-12-14T00:16:40.785Z,-1.58
2015-12-14T00:16:53.193Z,-1.55
2015-12-14T00:17:05.553Z,-1.61
2015-12-14T00:17:17.912Z,-1.67
2015-12-14T00:17:30.271Z,-1.67
2015-12-14T00:17:42.631Z,-1.53
2015-12-14T00:17:54.978Z,-1.6
2015-12-14T00:18:07.353Z,-1.67
2015-12-14T00:18:19.697Z,-1.67
2015-12-14T00:18:32.072Z,-1.7
2015-12-14T00:18:44.416Z,-1.63
2015-12-14T00:18:56.794Z,-1.81
2015-12-14T00:19:09.200Z,-1.81
2015-12-14T00:19:21.560Z,-1.7
2015-12-14T00:19:33.919Z,-1.79
2015-12-14T00:19:46.278Z,-1.78
2015-12-14T00:19:58.655Z,-1.71
2015-12-14T00:20:11.046Z,-1.74
2015-12-14T00:20:23.405Z,-1.7
2015-12-14T00:20:35.780Z,-1.78
2015-12-14T00:20:48.171Z,-1.76
2015-12-14T00:21:00.565Z,-1.81
2015-12-14T00:21:12.971Z,-1.84
2015-12-14T00:21:25.346Z,-1.92
2015-12-14T00:21:37.736Z,-1.86
2015-12-14T00:21:50.143Z,-1.88
2015-12-14T00:22:02.535Z,-1.85
2015-12-14T00:22:14.910Z,-1.89
2015-12-14T00:22:27.270Z,-1.88
2015-12-14T00:22:38.926Z,-1.94
2015-12-14T00:22:51.285Z,-1.94
2015-12-14T00:23:02.929Z,-1.91
2015-12-14T00:23:15.288Z,-1.86
2015-12-14T00:23:27.648Z,-1.96
2015-12-14T00:23:40.007Z,-1.99
2015-12-14T00:23:52.366Z,-1.99
2015-12-14T00:24:04.729Z,-2.03
2015-12-14T00:24:17.104Z,-2.03
2015-12-14T00:24:29.463Z,-2.05
2015-12-14T00:24:41.823Z,-2.03
2015-12-14T00:24:54.182Z,-1.99
2015-12-14T00:25:06.544Z,-2.05
2015-12-14T00:25:18.919Z,-2.15
2015-12-14T00:25:31.294Z,-2.02
2015-12-14T00:25:43.669Z,-2.06
2015-12-14T00:25:56.044Z,-2.12
2015-12-14T00:26:08.437Z,-2.12
2015-12-14T00:26:20.812Z,-2.14
2015-12-14T00:26:33.046Z,-2.1
2015-12-14T00:26:45.453Z,-2.06
2015-12-14T00:26:57.828Z,-2.09
2015-12-14T00:27:10.237Z,-2.06
2015-12-14T00:27:22.612Z,-2.17
2015-12-14T00:27:35.002Z,-2.18
2015-12-14T00:27:47.409Z,-2.1
2015-12-14T00:27:59.752Z,-2.12
2015-12-14T00:28:12.115Z,-2.1
2015-12-14T00:28:24.459Z,-2.2
2015-12-14T00:28:36.115Z,-2.2
2015-12-14T00:28:48.505Z,-2.15
2015-12-14T00:29:00.865Z,-2.2
2015-12-14T00:29:13.212Z,-2.17
2015-12-14T00:29:25.571Z,-2.2
2015-12-14T00:29:37.930Z,-2.14
2015-12-14T00:29:50.305Z,-2.2
2015-12-14T00:30:02.665Z,-2.21
2015-12-14T00:30:15.011Z,-2.12
2015-12-14T00:30:27.386Z,-2.1
2015-12-14T00:30:39.746Z,-2.12
2015-12-14T00:30:52.121Z,-2.18
2015-12-14T00:31:03.777Z,-2.12
2015-12-14T00:31:16.155Z,-2.12
2015-12-14T00:31:28.530Z,-2.12
2015-12-14T00:31:40.921Z,-2.15
2015-12-14T00:31:53.311Z,-2.12
2015-12-14T00:32:05.702Z,-2.09
2015-12-14T00:32:18.096Z,-2.2
2015-12-14T00:32:30.502Z,-2.14
2015-12-14T00:32:42.877Z,-2.06
2015-12-14T00:32:55.267Z,-2.1
2015-12-14T00:33:07.674Z,-2.07
2015-12-14T00:33:20.019Z,-2.2
2015-12-14T00:33:32.363Z,-2.15
2015-12-14T00:33:44.723Z,-2.09
2015-12-14T00:33:57.082Z,-2.09
2015-12-14T00:34:09.441Z,-2.1
2015-12-14T00:34:21.788Z,-2.1
2015-12-14T00:34:34.147Z,-2.02
2015-12-14T00:34:46.491Z,-2
2015-12-14T00:34:58.851Z,-2
2015-12-14T00:35:11.226Z,-2.02
2015-12-14T00:35:23.572Z,-2.02
2015-12-14T00:35:35.932Z,-1.97
2015-12-14T00:35:48.291Z,-2
2015-12-14T00:36:00.666Z,-1.97
2015-12-14T00:36:13.025Z,-2
2015-12-14T00:36:25.402Z,-2.02
2015-12-14T00:36:37.762Z,-2.03
2015-12-14T00:36:50.137Z,-1.99
2015-12-14T00:37:01.824Z,-2.05
2015-12-14T00:37:13.496Z,-1.91
2015-12-14T00:37:25.890Z,-2.02
2015-12-14T00:37:38.265Z,-1.86
2015-12-14T00:37:50.655Z,-1.94
2015-12-14T00:38:03.046Z,-1.91
2015-12-14T00:38:15.437Z,-1.94
2015-12-14T00:38:27.830Z,-1.89
2015-12-14T00:38:40.237Z,-1.92
2015-12-14T00:38:52.596Z,-1.88
2015-12-14T00:39:04.955Z,-1.89
2015-12-14T00:39:17.315Z,-1.86
2015-12-14T00:39:29.677Z,-1.91
2015-12-14T00:39:42.036Z,-1.85
2015-12-14T00:39:54.396Z,-1.89
2015-12-14T00:40:06.755Z,-1.88
2015-12-14T00:40:19.115Z,-1.85
2015-12-14T00:40:31.476Z,-1.85
2015-12-14T00:40:43.835Z,-1.89
2015-12-14T00:40:56.195Z,-1.82
2015-12-14T00:41:08.554Z,-1.82
2015-12-14T00:41:20.929Z,-1.85
2015-12-14T00:41:33.307Z,-1.88
2015-12-14T00:41:45.666Z,-1.84
2015-12-14T00:41:58.041Z,-1.88
2015-12-14T00:42:10.416Z,-1.88
2015-12-14T00:42:22.791Z,-1.82
2015-12-14T00:42:35.169Z,-1.85
2015-12-14T00:42:47.560Z,-1.78
2015-12-14T00:42:59.951Z,-1.89
2015-12-14T00:43:12.341Z,-1.92
2015-12-14T00:43:24.748Z,-1.86
2015-12-14T00:43:37.126Z,-1.89
2015-12-14T00:43:49.516Z,-1.82
2015-12-14T00:44:01.860Z,-1.85
2015-12-14T00:44:14.204Z,-1.91
2015-12-14T00:44:26.547Z,-1.85
2015-12-14T00:44:38.910Z,-1.91
2015-12-14T00:44:51.269Z,-1.86
2015-12-14T00:45:03.629Z,-1.92
2015-12-14T00:45:15.988Z,-1.97
2015-12-14T00:45:28.347Z,-1.91
2015-12-14T00:45:40.709Z,-1.94
2015-12-14T00:45:53.052Z,-1.86
2015-12-14T00:46:05.427Z,-1.85
2015-12-14T00:46:17.771Z,-1.96
2015-12-14T00:46:30.146Z,-1.85
2015-12-14T00:46:42.493Z,-1.92
2015-12-14T00:46:54.868Z,-1.91
2015-12-14T00:47:07.243Z,-1.97
2015-12-14T00:47:19.649Z,-1.92
2015-12-14T00:47:32.009Z,-1.99
2015-12-14T00:47:44.387Z,-1.96
2015-12-14T00:47:56.777Z,-1.94
2015-12-14T00:48:09.168Z,-1.91
2015-12-14T00:48:21.543Z,-1.97
2015-12-14T00:48:33.933Z,-1.96
2015-12-14T00:48:46.327Z,-2
2015-12-14T00:48:58.702Z,-1.96
2015-12-14T00:49:11.061Z,-2.02
2015-12-14T00:49:23.421Z,-2
2015-12-14T00:49:35.765Z,-1.99
2015-12-14T00:49:48.126Z,-2.03
2015-12-14T00:50:00.485Z,-2.07
2015-12-14T00:50:12.845Z,-2.05
2015-12-14T00:50:25.204Z,-2.14
2015-12-14T00:50:37.563Z,-2
2015-12-14T00:50:49.910Z,-2.09
2015-12-14T00:51:02.301Z,-2.06
2015-12-14T00:51:14.645Z,-2.03
2015-12-14T00:51:27.004Z,-2.05
2015-12-14T00:51:39.363Z,-2.07
2015-12-14T00:51:51.725Z,-2.1
2015-12-14T00:52:04.100Z,-2.14
2015-12-14T00:52:16.475Z,-2.15
2015-12-14T00:52:28.834Z,-2.09
2015-12-14T00:52:41.193Z,-2.09
2015-12-14T00:52:53.571Z,-2.15
2015-12-14T00:53:05.962Z,-2.12
2015-12-14T00:53:18.353Z,-2.07
2015-12-14T00:53:30.728Z,-2.21
2015-12-14T00:53:43.118Z,-2.21
2015-12-14T00:53:55.529Z,-2.12
2015-12-14T00:54:07.919Z,-2.15
2015-12-14T00:54:20.310Z,-2.25
2015-12-14T00:54:32.700Z,-2.12
2015-12-14T00:54:45.075Z,-2.24
2015-12-14T00:54:57.437Z,-2.2
2015-12-14T00:55:09.781Z,-2.21
2015-12-14T00:55:22.140Z,-2.25
2015-12-14T00:55:34.515Z,-2.3
2015-12-14T00:55:46.859Z,-2.2
2015-12-14T00:55:59.221Z,-2.24
2015-12-14T00:56:11.580Z,-2.2
2015-12-14T00:56:23.940Z,-2.24
2015-12-14T00:56:36.299Z,-2.28
2015-12-14T00:56:48.659Z,-2.32
2015-12-14T00:57:01.021Z,-2.36
2015-12-14T00:57:13.380Z,-2.27
2015-12-14T00:57:25.755Z,-2.3
2015-12-14T00:57:38.130Z,-2.28
2015-12-14T00:57:50.505Z,-2.32
2015-12-14T00:58:02.179Z,-2.32
2015-12-14T00:58:14.539Z,-2.27
2015-12-14T00:58:26.929Z,-2.28
2015-12-14T00:58:39.320Z,-2.3
2015-12-14T00:58:51.710Z,-2.3
2015-12-14T00:59:04.104Z,-2.27
2015-12-14T00:59:16.495Z,-2.32
2015-12-14T00:59:28.885Z,-2.23
2015-12-14T00:59:41.276Z,-2.27
2015-12-14T00:59:53.682Z,-2.3
2015-12-14T01:00:05.919Z,-2.24
2015-12-14T01:00:18.278Z,-2.23
2015-12-14T01:00:30.637Z,-2.24
2015-12-14T01:00:42.981Z,-2.34
2015-12-14T01:00:55.356Z,-2.32
2015-12-14T01:01:07.703Z,-2.21
2015-12-14T01:01:20.062Z,-2.23
2015-12-14T01:01:32.422Z,-2.18
2015-12-14T01:01:44.781Z,-2.27
2015-12-14T01:01:57.156Z,-2.23
2015-12-14T01:02:09.518Z,-2.18
2015-12-14T01:02:21.878Z,-2.17
2015-12-14T01:02:34.237Z,-2.23
2015-12-14T01:02:46.596Z,-2.28
2015-12-14T01:02:58.815Z,-2.27
2015-12-14T01:03:11.193Z,-2.18
2015-12-14T01:03:23.568Z,-2.17
2015-12-14T01:03:35.959Z,-2.28
2015-12-14T01:03:48.334Z,-2.3
2015-12-14T01:04:00.709Z,-2.34
2015-12-14T01:04:13.102Z,-2.28
2015-12-14T01:04:25.509Z,-2.27
2015-12-14T01:04:37.852Z,-2.32
2015-12-14T01:04:50.243Z,-2.3
2015-12-14T01:05:02.587Z,-2.4
2015-12-14T01:05:14.948Z,-2.39
2015-12-14T01:05:27.323Z,-2.36
2015-12-14T01:05:39.683Z,-2.36
2015-12-14T01:05:52.042Z,-2.25
2015-12-14T01:06:04.401Z,-2.27
2015-12-14T01:06:16.764Z,-2.32
2015-12-14T01:06:29.139Z,-2.3
2015-12-14T01:06:41.498Z,-2.42
2015-12-14T01:06:53.857Z,-2.46
2015-12-14T01:07:06.217Z,-2.39
2015-12-14T01:07:18.579Z,-2.46
2015-12-14T01:07:30.954Z,-2.44
2015-12-14T01:07:43.157Z,-2.36
2015-12-14T01:07:55.532Z,-2.32
2015-12-14T01:08:07.907Z,-2.46
2015-12-14T01:08:20.301Z,-2.4
2015-12-14T01:08:32.692Z,-2.46
2015-12-14T01:08:45.067Z,-2.37
2015-12-14T01:08:57.473Z,-2.37
2015-12-14T01:09:09.879Z,-2.36
2015-12-14T01:09:22.225Z,-2.36
2015-12-14T01:09:34.584Z,-2.36
2015-12-14T01:09:46.944Z,-2.3
2015-12-14T01:09:58.584Z,-2.4
2015-12-14T01:10:10.944Z,-2.39
2015-12-14T01:10:23.323Z,-2.39
2015-12-14T01:10:35.666Z,-2.44
2015-12-14T01:10:48.026Z,-2.44
2015-12-14T01:11:00.385Z,-2.46
2015-12-14T01:11:12.041Z,-2.4
2015-12-14T01:11:24.403Z,-2.46
2015-12-14T01:11:36.746Z,-2.44
2015-12-14T01:11:48.934Z,-2.43
2015-12-14T01:12:01.293Z,-2.42
2015-12-14T01:12:13.684Z,-2.46
2015-12-14T01:12:26.062Z,-2.47
2015-12-14T01:12:38.437Z,-2.47
2015-12-14T01:12:50.796Z,-2.53
2015-12-14T01:13:03.203Z,-2.57
2015-12-14T01:13:15.578Z,-2.5
2015-12-14T01:13:27.971Z,-2.5
2015-12-14T01:13:40.362Z,-2.44
2015-12-14T01:13:52.737Z,-2.5
2015-12-14T01:14:05.143Z,-2.53
2015-12-14T01:14:17.534Z,-2.54
2015-12-14T01:14:29.943Z,-2.46
2015-12-14T01:14:42.334Z,-2.5
2015-12-14T01:14:54.677Z,-2.6
2015-12-14T01:15:07.037Z,-2.53
2015-12-14T01:15:19.396Z,-2.46
2015-12-14T01:15:31.743Z,-2.53
2015-12-14T01:15:44.102Z,-2.5
2015-12-14T01:15:56.446Z,-2.5
2015-12-14T01:16:08.805Z,-2.43
2015-12-14T01:16:21.149Z,-2.43
2015-12-14T01:16:33.510Z,-2.55
2015-12-14T01:16:45.885Z,-2.47
2015-12-14T01:16:58.229Z,-2.43
2015-12-14T01:17:10.589Z,-2.5
2015-12-14T01:17:22.948Z,-2.46
2015-12-14T01:17:35.325Z,-2.46
2015-12-14T01:17:47.700Z,-2.44
2015-12-14T01:17:59.356Z,-2.5
2015-12-14T01:18:11.716Z,-2.49
2015-12-14T01:18:24.091Z,-2.47
2015-12-14T01:18:36.501Z,-2.4
2015-12-14T01:18:48.876Z,-2.4
2015-12-14T01:19:01.266Z,-2.46
2015-12-14T01:19:13.657Z,-2.44
2015-12-14T01:19:26.048Z,-2.46
2015-12-14T01:19:38.441Z,-2.42
2015-12-14T01:19:50.832Z,-2.49
2015-12-14T01:20:03.223Z,-2.42
2015-12-14T01:20:15.582Z,-2.43
2015-12-14T01:20:27.941Z,-2.34
2015-12-14T01:20:40.303Z,-2.27
2015-12-14T01:20:52.662Z,-2.32
2015-12-14T01:21:05.037Z,-2.3
2015-12-14T01:21:17.381Z,-2.32
2015-12-14T01:21:29.740Z,-2.28
2015-12-14T01:21:42.103Z,-2.32
2015-12-14T01:21:54.462Z,-2.24
2015-12-14T01:22:34.276Z,-2.23
2015-12-14T01:22:46.683Z,-2.12
2015-12-14T01:22:59.058Z,-2.18
2015-12-14T01:23:11.433Z,-2.2
2015-12-14T01:23:23.808Z,-2.2
2015-12-14T01:23:36.186Z,-2.23
2015-12-14T01:23:48.545Z,-2.2
2015-12-14T01:24:00.936Z,-2.15
2015-12-14T01:24:13.389Z,-2.17
2015-12-14T01:24:25.779Z,-2.18
2015-12-14T01:24:38.173Z,-2.21
2015-12-14T01:24:50.564Z,-2.18
2015-12-14T01:25:02.986Z,-2.2
2015-12-14T01:25:15.376Z,-2.2
2015-12-14T01:25:27.814Z,-2.09
2015-12-14T01:25:40.192Z,-2.17
2015-12-14T01:25:52.535Z,-2.14
2015-12-14T01:26:04.895Z,-2.15
2015-12-14T01:26:17.254Z,-2.17
2015-12-14T01:26:29.614Z,-2.12
2015-12-14T01:26:41.992Z,-2.15
2015-12-14T01:26:54.351Z,-2.18
2015-12-14T01:27:06.710Z,-2.14
2015-12-14T01:27:19.070Z,-2.15
2015-12-14T01:27:31.445Z,-2.2
2015-12-14T01:27:43.790Z,-2.25
2015-12-14T01:27:56.165Z,-2.18
2015-12-14T01:28:08.525Z,-2.17
2015-12-14T01:28:20.869Z,-2.25
2015-12-14T01:28:33.244Z,-2.2
2015-12-14T01:28:45.622Z,-2.21
2015-12-14T01:28:57.981Z,-2.15
2015-12-14T01:29:10.356Z,-2.18
2015-12-14T01:29:22.747Z,-2.17
2015-12-14T01:29:35.122Z,-2.23
2015-12-14T01:29:47.531Z,-2.15
2015-12-14T01:29:59.953Z,-2.18
2015-12-14T01:30:12.328Z,-2.23
2015-12-14T01:30:24.734Z,-2.18
2015-12-14T01:30:37.140Z,-2.25
2015-12-14T01:30:49.534Z,-2.2
2015-12-14T01:31:01.924Z,-2.2
2015-12-14T01:31:14.284Z,-2.23
2015-12-14T01:31:26.628Z,-2.24
2015-12-14T01:31:38.987Z,-2.2
2015-12-14T01:31:51.348Z,-2.24
2015-12-14T01:32:03.708Z,-2.32
2015-12-14T01:32:16.083Z,-2.32
2015-12-14T01:32:28.426Z,-2.32
2015-12-14T01:32:40.786Z,-2.24
2015-12-14T01:32:53.133Z,-2.36
2015-12-14T01:33:04.804Z,-2.28
2015-12-14T01:33:16.289Z,-2.32
2015-12-14T01:33:28.648Z,-2.28
2015-12-14T01:33:41.008Z,-2.28
2015-12-14T01:33:53.386Z,-2.24
2015-12-14T01:34:05.761Z,-2.28
2015-12-14T01:34:18.136Z,-2.24
2015-12-14T01:34:30.511Z,-2.15
2015-12-14T01:34:42.901Z,-2.24
2015-12-14T01:34:55.294Z,-2.2
2015-12-14T01:35:06.966Z,-2.23
2015-12-14T01:35:19.356Z,-2.23
2015-12-14T01:35:31.747Z,-2.28
2015-12-14T01:35:44.106Z,-2.28
2015-12-14T01:35:56.469Z,-2.2
2015-12-14T01:36:08.812Z,-2.21
2015-12-14T01:36:21.187Z,-2.14
2015-12-14T01:36:33.547Z,-2.15
2015-12-14T01:36:45.891Z,-2.15
2015-12-14T01:36:58.253Z,-2.17
2015-12-14T01:37:10.612Z,-2.21
2015-12-14T01:37:23.003Z,-2.15
2015-12-14T01:37:35.378Z,-2.14
2015-12-14T01:37:47.753Z,-2.15
2015-12-14T01:38:00.114Z,-2.18
2015-12-14T01:38:12.474Z,-2.21
2015-12-14T01:38:24.817Z,-2.21
2015-12-14T01:38:37.192Z,-2.18
2015-12-14T01:38:49.552Z,-2.09
2015-12-14T01:39:01.930Z,-2.2
2015-12-14T01:39:14.305Z,-2.21
2015-12-14T01:39:26.695Z,-2.2
2015-12-14T01:39:39.070Z,-2.23
2015-12-14T01:39:51.461Z,-2.17
2015-12-14T01:40:03.855Z,-2.24
2015-12-14T01:40:16.245Z,-2.25
2015-12-14T01:40:28.636Z,-2.15
2015-12-14T01:40:41.027Z,-2.21
2015-12-14T01:40:53.277Z,-2.17
2015-12-14T01:41:04.920Z,-2.18
2015-12-14T01:41:17.295Z,-2.18
2015-12-14T01:41:29.639Z,-2.18
2015-12-14T01:41:41.998Z,-2.14
2015-12-14T01:41:54.358Z,-2.18
2015-12-14T01:42:06.736Z,-2.1
2015-12-14T01:42:19.079Z,-2.15
2015-12-14T01:42:31.454Z,-2.17
2015-12-14T01:42:43.814Z,-2.15
2015-12-14T01:42:56.173Z,-2.15
2015-12-14T01:43:08.535Z,-2.24
2015-12-14T01:43:20.894Z,-2.21
2015-12-14T01:43:33.253Z,-2.21
2015-12-14T01:43:45.613Z,-2.17
2015-12-14T01:43:58.003Z,-2.27
2015-12-14T01:44:10.366Z,-2.27
2015-12-14T01:44:22.022Z,-2.24
2015-12-14T01:44:34.397Z,-2.32
2015-12-14T01:44:46.788Z,-2.32
2015-12-14T01:44:59.163Z,-2.28
2015-12-14T01:45:11.572Z,-2.34
2015-12-14T01:45:23.947Z,-2.24
2015-12-14T01:45:36.369Z,-2.28
2015-12-14T01:45:48.712Z,-2.24
2015-12-14T01:46:01.056Z,-2.32
2015-12-14T01:46:13.261Z,-2.34
2015-12-14T01:46:25.621Z,-2.37
2015-12-14T01:46:37.980Z,-2.36
2015-12-14T01:46:50.339Z,-2.25
2015-12-14T01:47:02.699Z,-2.32
2015-12-14T01:47:14.905Z,-2.25
2015-12-14T01:47:26.546Z,-2.28
2015-12-14T01:47:38.921Z,-2.37
2015-12-14T01:47:51.280Z,-2.3
2015-12-14T01:48:03.639Z,-2.37
2015-12-14T01:48:15.986Z,-2.37
2015-12-14T01:48:28.330Z,-2.39
2015-12-14T01:48:40.705Z,-2.43
2015-12-14T01:48:53.064Z,-2.39
2015-12-14T01:49:05.439Z,-2.46
2015-12-14T01:49:17.833Z,-2.43
2015-12-14T01:49:30.208Z,-2.46
2015-12-14T01:49:42.583Z,-2.4
2015-12-14T01:49:54.973Z,-2.4
2015-12-14T01:50:07.364Z,-2.42
2015-12-14T01:50:19.758Z,-2.47
2015-12-14T01:50:32.164Z,-2.44
2015-12-14T01:50:44.539Z,-2.43
2015-12-14T01:50:56.930Z,-2.44
2015-12-14T01:51:09.289Z,-2.46
2015-12-14T01:51:21.650Z,-2.47
2015-12-14T01:51:34.010Z,-2.44
2015-12-14T01:51:46.369Z,-2.47
2015-12-14T01:51:58.728Z,-2.46
2015-12-14T01:52:11.088Z,-2.47
2015-12-14T01:52:23.450Z,-2.44
2015-12-14T01:52:35.810Z,-2.46
2015-12-14T01:52:48.169Z,-2.44
2015-12-14T01:53:00.544Z,-2.53
2015-12-14T01:53:12.903Z,-2.57
2015-12-14T01:53:25.281Z,-2.49
2015-12-14T01:53:37.641Z,-2.47
2015-12-14T01:53:50.016Z,-2.43
2015-12-14T01:54:02.391Z,-2.53
2015-12-14T01:54:14.766Z,-2.5
2015-12-14T01:54:27.128Z,-2.54
2015-12-14T01:54:39.487Z,-2.55
2015-12-14T01:54:51.862Z,-2.49
2015-12-14T01:55:04.253Z,-2.5
2015-12-14T01:55:16.644Z,-2.46
2015-12-14T01:55:29.037Z,-2.55
2015-12-14T01:55:41.428Z,-2.53
2015-12-14T01:55:53.803Z,-2.49
2015-12-14T01:56:06.209Z,-2.44
2015-12-14T01:56:18.553Z,-2.46
2015-12-14T01:56:30.930Z,-2.6
2015-12-14T01:56:43.289Z,-2.58
2015-12-14T01:56:55.649Z,-2.61
2015-12-14T01:57:08.008Z,-2.6
2015-12-14T01:57:20.352Z,-2.61
2015-12-14T01:57:32.714Z,-2.61
2015-12-14T01:57:45.074Z,-2.46
2015-12-14T01:57:57.464Z,-2.64
2015-12-14T01:58:09.824Z,-2.67
2015-12-14T01:58:22.183Z,-2.64
2015-12-14T01:58:34.545Z,-2.5
2015-12-14T01:58:46.905Z,-2.62
2015-12-14T01:58:59.264Z,-2.54
2015-12-14T01:59:11.639Z,-2.61
2015-12-14T01:59:24.014Z,-2.65
2015-12-14T01:59:36.391Z,-2.54
2015-12-14T01:59:48.766Z,-2.58
2015-12-14T02:00:01.157Z,-2.5
2015-12-14T02:00:13.391Z,-2.64
2015-12-14T02:00:25.782Z,-2.6
2015-12-14T02:00:38.176Z,-2.57
2015-12-14T02:00:50.583Z,-2.5
2015-12-14T02:01:02.958Z,-2.54
2015-12-14T02:01:15.348Z,-2.57
2015-12-14T02:01:27.739Z,-2.61
2015-12-14T02:01:40.100Z,-2.61
2015-12-14T02:01:52.460Z,-2.5
2015-12-14T02:02:04.663Z,-2.5
2015-12-14T02:02:17.022Z,-2.6
2015-12-14T02:02:29.381Z,-2.64
2015-12-14T02:02:41.744Z,-2.62
2015-12-14T02:02:54.103Z,-2.58
2015-12-14T02:03:06.447Z,-2.67
2015-12-14T02:03:18.822Z,-2.61
2015-12-14T02:03:31.197Z,-2.65
2015-12-14T02:03:43.558Z,-2.57
2015-12-14T02:03:55.902Z,-2.55
2015-12-14T02:04:08.261Z,-2.43
2015-12-14T02:04:20.621Z,-2.65
2015-12-14T02:04:32.996Z,-2.53
2015-12-14T02:04:45.374Z,-2.54
2015-12-14T02:04:57.733Z,-2.55
2015-12-14T02:05:10.124Z,-2.53
2015-12-14T02:05:22.499Z,-2.54
2015-12-14T02:05:34.889Z,-2.5
2015-12-14T02:05:47.283Z,-2.46
2015-12-14T02:05:59.674Z,-2.46
2015-12-14T02:06:12.080Z,-2.47
2015-12-14T02:06:24.471Z,-2.4
2015-12-14T02:06:36.861Z,-2.5
2015-12-14T02:06:49.255Z,-2.43
2015-12-14T02:07:01.645Z,-2.4
2015-12-14T02:07:13.989Z,-2.47
2015-12-14T02:07:26.364Z,-2.46
2015-12-14T02:07:38.708Z,-2.37
2015-12-14T02:07:51.069Z,-2.28
2015-12-14T02:08:03.429Z,-2.36
2015-12-14T02:08:15.788Z,-2.25
2015-12-14T02:08:28.147Z,-2.28
2015-12-14T02:08:40.507Z,-2.28
2015-12-14T02:08:52.916Z,-2.27
2015-12-14T02:09:05.275Z,-2.28
2015-12-14T02:09:17.635Z,-2.28
2015-12-14T02:09:29.994Z,-2.25
2015-12-14T02:09:42.372Z,-2.28
2015-12-14T02:09:54.732Z,-2.28
2015-12-14T02:10:07.107Z,-2.23
2015-12-14T02:10:19.482Z,-2.15
2015-12-14T02:10:31.857Z,-2.2
2015-12-14T02:10:44.227Z,-2.2
2015-12-14T02:10:56.602Z,-2.23
2015-12-14T02:11:08.992Z,-2.17
2015-12-14T02:11:21.383Z,-2.17
2015-12-14T02:11:33.773Z,-2.17
2015-12-14T02:11:46.142Z,-2.18
2015-12-14T02:11:58.533Z,-2.2
2015-12-14T02:12:10.939Z,-2.15
2015-12-14T02:12:23.408Z,-2.15
2015-12-14T02:12:35.767Z,-2.15
2015-12-14T02:12:48.120Z,-2.21
2015-12-14T02:13:00.464Z,-2.18
2015-12-14T02:13:12.839Z,-2.2
2015-12-14T02:13:25.182Z,-2.12
2015-12-14T02:13:37.542Z,-2.15
2015-12-14T02:13:49.894Z,-2.1
2015-12-14T02:14:02.253Z,-2.15
2015-12-14T02:14:14.613Z,-2.17
2015-12-14T02:14:26.972Z,-2.12
2015-12-14T02:14:39.332Z,-2.12
2015-12-14T02:14:51.685Z,-2.09
2015-12-14T02:15:04.044Z,-2.18
2015-12-14T02:15:16.404Z,-2.07
2015-12-14T02:15:28.779Z,-2.14
2015-12-14T02:15:41.154Z,-2.14
2015-12-14T02:15:53.527Z,-2.14
2015-12-14T02:16:05.902Z,-2.06
2015-12-14T02:16:18.277Z,-2.1
2015-12-14T02:16:30.667Z,-2.12
2015-12-14T02:16:43.074Z,-2.07
2015-12-14T02:16:55.307Z,-2.07
2015-12-14T02:17:07.698Z,-2.07
2015-12-14T02:17:20.088Z,-2.12
2015-12-14T02:17:32.479Z,-2.12
2015-12-14T02:17:44.885Z,-2.1
2015-12-14T02:17:57.243Z,-2.12
2015-12-14T02:18:09.603Z,-2.06
2015-12-14T02:18:21.947Z,-2.06
2015-12-14T02:18:34.306Z,-2.03
2015-12-14T02:18:46.665Z,-2
2015-12-14T02:18:59.025Z,-2
2015-12-14T02:19:11.400Z,-2.03
2015-12-14T02:19:23.743Z,-2.05
2015-12-14T02:19:36.103Z,-1.99
2015-12-14T02:19:48.462Z,-2
2015-12-14T02:20:00.821Z,-2.05
2015-12-14T02:20:13.180Z,-2.1
2015-12-14T02:20:25.539Z,-2.03
2015-12-14T02:20:37.899Z,-2.05
2015-12-14T02:20:50.274Z,-2.03
2015-12-14T02:21:02.635Z,-2
2015-12-14T02:21:15.010Z,-1.99
2015-12-14T02:21:27.416Z,-1.97
2015-12-14T02:21:39.791Z,-1.99
2015-12-14T02:21:52.182Z,-1.91
2015-12-14T02:22:04.574Z,-2.06
2015-12-14T02:22:16.949Z,-2.03
2015-12-14T02:22:29.355Z,-2.06
2015-12-14T02:22:41.745Z,-1.99
2015-12-14T02:22:54.120Z,-2.06
2015-12-14T02:23:06.497Z,-1.96
2015-12-14T02:23:18.857Z,-1.99
2015-12-14T02:23:31.216Z,-2.05
2015-12-14T02:23:43.560Z,-2.05
2015-12-14T02:23:55.919Z,-2
2015-12-14T02:24:08.280Z,-2
2015-12-14T02:24:20.655Z,-2.05
2015-12-14T02:24:32.998Z,-2.05
2015-12-14T02:24:45.358Z,-2.03
2015-12-14T02:24:57.717Z,-2
2015-12-14T02:25:10.079Z,-2.03
2015-12-14T02:25:22.438Z,-2.02
2015-12-14T02:25:34.797Z,-1.88
2015-12-14T02:25:47.157Z,-1.96
2015-12-14T02:25:59.516Z,-2.05
2015-12-14T02:26:11.910Z,-2.02
2015-12-14T02:26:24.285Z,-1.88
2015-12-14T02:26:36.660Z,-1.91
2015-12-14T02:26:49.035Z,-1.96
2015-12-14T02:27:01.410Z,-2.06
2015-12-14T02:27:13.802Z,-2.03
2015-12-14T02:27:26.193Z,-2
2015-12-14T02:27:38.584Z,-2
2015-12-14T02:27:50.959Z,-2.05
2015-12-14T02:28:02.646Z,-2.03
2015-12-14T02:28:15.040Z,-2
2015-12-14T02:28:27.430Z,-2
2015-12-14T02:28:39.805Z,-2.03
2015-12-14T02:28:52.165Z,-1.97
2015-12-14T02:29:04.508Z,-1.97
2015-12-14T02:29:16.870Z,-2
2015-12-14T02:29:29.229Z,-1.97
2015-12-14T02:29:41.573Z,-2.03
2015-12-14T02:29:53.932Z,-2.02
2015-12-14T02:30:06.292Z,-2
2015-12-14T02:30:17.950Z,-2
2015-12-14T02:30:30.309Z,-1.96
2015-12-14T02:30:42.669Z,-1.99
2015-12-14T02:30:55.059Z,-2.03
2015-12-14T02:31:07.419Z,-2.02
2015-12-14T02:31:19.765Z,-1.99
2015-12-14T02:31:32.125Z,-2.06
2015-12-14T02:31:44.500Z,-1.94
2015-12-14T02:31:56.875Z,-2.09
2015-12-14T02:32:09.250Z,-2
2015-12-14T02:32:21.627Z,-2.03
2015-12-14T02:32:34.017Z,-2.02
2015-12-14T02:32:46.392Z,-1.99
2015-12-14T02:32:58.783Z,-2.03
2015-12-14T02:33:11.174Z,-2.1
2015-12-14T02:33:23.551Z,-2.14
2015-12-14T02:33:35.957Z,-2.09
2015-12-14T02:33:48.348Z,-2.03
2015-12-14T02:34:00.738Z,-2
2015-12-14T02:34:13.129Z,-2.03
2015-12-14T02:34:25.490Z,-2.14
2015-12-14T02:34:37.834Z,-1.99
2015-12-14T02:34:50.193Z,-2.07
2015-12-14T02:35:02.553Z,-2
2015-12-14T02:35:14.928Z,-2.1
2015-12-14T02:35:27.306Z,-2.07
2015-12-14T02:35:39.665Z,-2.07
2015-12-14T02:35:52.024Z,-2.05
2015-12-14T02:36:04.368Z,-2.15
2015-12-14T02:36:16.759Z,-2.06
2015-12-14T02:36:28.965Z,-2.07
2015-12-14T02:36:41.324Z,-2.03
2015-12-14T02:36:53.668Z,-2.07
2015-12-14T02:37:05.324Z,-2.02
2015-12-14T02:37:16.996Z,-2.02
2015-12-14T02:37:29.373Z,-2.09
2015-12-14T02:37:41.733Z,-2.06
2015-12-14T02:37:54.108Z,-2.07
2015-12-14T02:38:06.498Z,-2.05
2015-12-14T02:38:18.889Z,-2.02
2015-12-14T02:38:30.565Z,-2.02
2015-12-14T02:38:42.971Z,-2.03
2015-12-14T02:38:55.393Z,-2.06
2015-12-14T02:39:07.783Z,-2.06
2015-12-14T02:39:20.174Z,-2.1
2015-12-14T02:39:32.567Z,-2.06
2015-12-14T02:39:44.926Z,-1.97
2015-12-14T02:39:56.582Z,-2.02
2015-12-14T02:40:08.957Z,-1.94
2015-12-14T02:40:21.332Z,-2.03
2015-12-14T02:40:33.695Z,-1.99